Time;durP1;ratioP1;P1;durP2;ratioP2;P2;SDS_P1;SDS_P2;PMS_P1;PMS_P2;Temp;Humidity;BMP_temperature;BMP_pressure;BME280_temperature;BME280_humidity;BME280_pressure;Samples;Min_cycle;Max_cycle;Signal;HPM_P1;HPM_P2
2023/04/23 00:01:46;;;;;;;97.53;51.17;;;;;;;;;;5019855;28;20364;-71
2023/04/23 00:04:15;;;;;;;95.93;51.13;;;;;;;;;;5038457;28;20331;-70
2023/04/23 00:06:41;;;;;;;94.75;50.67;;;;;;;;;;5041719;28;20189;-71
2023/04/23 00:09:08;;;;;;;89.40;48.58;;;;;;;;;;5041777;28;20252;-70
2023/04/23 00:11:34;;;;;;;98.25;52.20;;;;;;;;;;5047264;28;20193;-70
2023/04/23 00:14:00;;;;;;;97.38;51.67;;;;;;;;;;5047986;28;20197;-70
2023/04/23 00:16:25;;;;;;;104.07;53.85;;;;;;;;;;5044433;28;20269;-70
2023/04/23 00:18:51;;;;;;;103.60;53.58;;;;;;;;;;5042327;28;20225;-71
2023/04/23 00:21:16;;;;;;;98.70;52.78;;;;;;;;;;5035600;28;20189;-70
2023/04/23 00:23:41;;;;;;;98.22;50.33;;;;;;;;;;5043558;28;20354;-70
2023/04/23 00:26:07;;;;;;;99.05;52.13;;;;;;;;;;5040250;28;20193;-70
2023/04/23 00:28:32;;;;;;;104.75;53.92;;;;;;;;;;5045857;28;20219;-71
2023/04/23 00:30:57;;;;;;;108.35;53.92;;;;;;;;;;5046156;28;20205;-70
2023/04/23 00:33:23;;;;;;;92.78;50.10;;;;;;;;;;5044695;28;20193;-70
2023/04/23 00:35:48;;;;;;;106.40;52.92;;;;;;;;;;5042463;28;20209;-70
2023/04/23 00:38:14;;;;;;;101.82;52.45;;;;;;;;;;5036502;28;20256;-71
2023/04/23 00:40:39;;;;;;;97.40;50.35;;;;;;;;;;5031146;28;20701;-70
2023/04/23 00:43:06;;;;;;;98.82;51.40;;;;;;;;;;5038050;28;20549;-70
2023/04/23 00:45:31;;;;;;;111.28;55.42;;;;;;;;;;5042645;28;20237;-70
2023/04/23 00:47:57;;;;;;;106.97;56.00;;;;;;;;;;5043028;28;20225;-71
2023/04/23 00:50:23;;;;;;;107.32;52.85;;;;;;;;;;5027735;28;20189;-70
2023/04/23 00:52:48;;;;;;;112.18;55.63;;;;;;;;;;5038907;28;20575;-70
2023/04/23 00:55:14;;;;;;;112.28;58.72;;;;;;;;;;5036419;28;20668;-70
2023/04/23 00:57:39;;;;;;;114.97;58.63;;;;;;;;;;5043029;28;20668;-70
2023/04/23 01:00:06;;;;;;;115.22;58.08;;;;;;;;;;5041113;28;20705;-70
2023/04/23 01:02:33;;;;;;;119.78;58.38;;;;;;;;;;5044546;28;20255;-71
2023/04/23 01:05:00;;;;;;;121.35;59.75;;;;;;;;;;5047614;28;20197;-70
2023/04/23 01:07:26;;;;;;;115.72;58.85;;;;;;;;;;5041154;28;20196;-70
2023/04/23 01:09:52;;;;;;;127.22;61.45;;;;;;;;;;5043908;28;20189;-71
2023/04/23 01:12:18;;;;;;;118.28;58.45;;;;;;;;;;5049161;28;20188;-70
2023/04/23 01:14:44;;;;;;;118.50;57.88;;;;;;;;;;5046402;28;20204;-70
2023/04/23 01:17:13;;;;;;;116.78;59.08;;;;;;;;;;5044390;28;20190;-71
2023/04/23 01:19:39;;;;;;;118.60;59.15;;;;;;;;;;5047239;28;20637;-70
2023/04/23 01:22:09;;;;;;;116.80;58.15;;;;;;;;;;5047711;28;20225;-71
2023/04/23 01:24:35;;;;;;;119.63;58.97;;;;;;;;;;5046122;28;20197;-71
2023/04/23 01:27:01;;;;;;;114.90;57.30;;;;;;;;;;5041583;28;20190;-70
2023/04/23 01:29:27;;;;;;;121.75;60.58;;;;;;;;;;5046328;28;20245;-71
2023/04/23 01:31:54;;;;;;;114.95;57.35;;;;;;;;;;5047984;28;20204;-70
2023/04/23 01:34:20;;;;;;;123.07;60.42;;;;;;;;;;5046635;28;20221;-70
2023/04/23 01:36:46;;;;;;;120.32;59.72;;;;;;;;;;5044261;28;20185;-70
2023/04/23 01:39:12;;;;;;;116.25;57.45;;;;;;;;;;5046571;28;20264;-70
2023/04/23 01:41:38;;;;;;;119.40;60.00;;;;;;;;;;5038235;28;20281;-70
2023/04/23 01:44:04;;;;;;;126.10;61.63;;;;;;;;;;5047236;28;20177;-70
2023/04/23 01:46:29;;;;;;;118.93;58.65;;;;;;;;;;5048462;28;20637;-71
2023/04/23 01:48:55;;;;;;;116.43;56.67;;;;;;;;;;5051368;28;20272;-71
2023/04/23 01:51:22;;;;;;;113.68;57.58;;;;;;;;;;5051660;28;20216;-71
2023/04/23 01:53:47;;;;;;;116.20;55.40;;;;;;;;;;5056513;28;20234;-70
2023/04/23 01:56:15;;;;;;;118.18;56.22;;;;;;;;;;5048252;28;20196;-71
2023/04/23 01:58:40;;;;;;;109.65;54.47;;;;;;;;;;5052835;28;20718;-70
2023/04/23 02:01:06;;;;;;;120.28;57.25;;;;;;;;;;5038634;28;20205;-71
2023/04/23 02:03:32;;;;;;;115.95;56.33;;;;;;;;;;5024166;28;20217;-71
2023/04/23 02:05:58;;;;;;;119.93;57.45;;;;;;;;;;5051079;28;20280;-70
2023/04/23 02:08:26;;;;;;;127.82;58.33;;;;;;;;;;5048512;28;20185;-70
2023/04/23 02:10:51;;;;;;;121.43;57.80;;;;;;;;;;5042452;28;20226;-71
2023/04/23 02:13:17;;;;;;;127.30;59.67;;;;;;;;;;5050233;28;20231;-71
2023/04/23 02:15:42;;;;;;;125.03;58.13;;;;;;;;;;5051483;28;20185;-70
2023/04/23 02:18:08;;;;;;;132.68;59.67;;;;;;;;;;5050581;28;20729;-71
2023/04/23 02:20:37;;;;;;;131.80;59.40;;;;;;;;;;5051639;28;20198;-71
2023/04/23 02:23:03;;;;;;;132.13;58.88;;;;;;;;;;5049322;28;20221;-71
2023/04/23 02:25:30;;;;;;;126.40;57.90;;;;;;;;;;5046464;28;20269;-71
2023/04/23 02:27:56;;;;;;;128.93;58.50;;;;;;;;;;5051319;28;20268;-71
2023/04/23 02:30:21;;;;;;;144.93;60.15;;;;;;;;;;5052079;28;20260;-71
2023/04/23 02:32:47;;;;;;;138.05;61.63;;;;;;;;;;5046312;28;20194;-70
2023/04/23 02:35:12;;;;;;;137.27;60.50;;;;;;;;;;5051113;28;20195;-71
2023/04/23 02:37:38;;;;;;;144.38;61.40;;;;;;;;;;5047109;28;20856;-71
2023/04/23 02:40:05;;;;;;;134.90;61.40;;;;;;;;;;5049857;28;20193;-71
2023/04/23 02:42:30;;;;;;;148.45;64.18;;;;;;;;;;5049978;28;20283;-71
2023/04/23 02:44:56;;;;;;;145.23;58.17;;;;;;;;;;5048676;28;20316;-71
2023/04/23 02:47:21;;;;;;;144.05;58.47;;;;;;;;;;5052523;28;20220;-71
2023/04/23 02:49:46;;;;;;;146.60;61.35;;;;;;;;;;5045483;28;20188;-71
2023/04/23 02:52:12;;;;;;;133.82;57.75;;;;;;;;;;5035952;28;20273;-70
2023/04/23 02:54:37;;;;;;;148.27;60.22;;;;;;;;;;5040522;28;20201;-70
2023/04/23 02:57:04;;;;;;;150.10;61.83;;;;;;;;;;5041677;28;20189;-70
2023/04/23 02:59:29;;;;;;;162.73;65.57;;;;;;;;;;5049065;28;20197;-70
2023/04/23 03:01:55;;;;;;;158.43;65.13;;;;;;;;;;5048727;28;20598;-71
2023/04/23 03:04:20;;;;;;;151.25;61.90;;;;;;;;;;5048175;28;20224;-71
2023/04/23 03:06:45;;;;;;;157.57;64.35;;;;;;;;;;5042322;28;20190;-71
2023/04/23 03:09:12;;;;;;;150.50;63.72;;;;;;;;;;5043254;28;20193;-71
2023/04/23 03:11:37;;;;;;;159.50;64.45;;;;;;;;;;5035732;28;20692;-70
2023/04/23 03:14:02;;;;;;;152.32;62.75;;;;;;;;;;5045230;28;20189;-70
2023/04/23 03:16:30;;;;;;;144.13;61.08;;;;;;;;;;5046870;28;20211;-71
2023/04/23 03:18:56;;;;;;;151.93;60.70;;;;;;;;;;5047917;28;20185;-71
2023/04/23 03:21:22;;;;;;;149.07;60.97;;;;;;;;;;5047832;28;20474;-70
2023/04/23 03:23:47;;;;;;;146.75;61.38;;;;;;;;;;5045811;28;20241;-70
2023/04/23 03:26:12;;;;;;;147.77;60.83;;;;;;;;;;5042947;28;20610;-71
2023/04/23 03:28:38;;;;;;;155.48;64.47;;;;;;;;;;5048991;28;20185;-71
2023/04/23 03:31:03;;;;;;;154.00;63.28;;;;;;;;;;5049085;28;20210;-71
2023/04/23 03:33:28;;;;;;;164.82;63.97;;;;;;;;;;5041614;28;20188;-71
2023/04/23 03:35:54;;;;;;;151.68;63.90;;;;;;;;;;5039371;28;20240;-70
2023/04/23 03:38:19;;;;;;;153.00;61.15;;;;;;;;;;5045096;28;20255;-70
2023/04/23 03:40:45;;;;;;;158.20;64.47;;;;;;;;;;5047644;28;20213;-70
2023/04/23 03:43:10;;;;;;;167.73;63.58;;;;;;;;;;5043394;28;20202;-71
2023/04/23 03:45:36;;;;;;;152.00;62.08;;;;;;;;;;5045772;28;20267;-71
2023/04/23 03:48:01;;;;;;;155.95;63.85;;;;;;;;;;5043912;28;20243;-71
2023/04/23 03:50:27;;;;;;;148.32;61.33;;;;;;;;;;5045277;28;20189;-71
2023/04/23 03:52:52;;;;;;;155.73;61.80;;;;;;;;;;5043990;28;20185;-71
2023/04/23 03:55:19;;;;;;;156.77;64.07;;;;;;;;;;5048083;28;20243;-71
2023/04/23 03:57:44;;;;;;;152.70;63.80;;;;;;;;;;5040123;28;20622;-71
2023/04/23 04:00:10;;;;;;;148.98;61.45;;;;;;;;;;5048982;28;20280;-71
2023/04/23 04:02:37;;;;;;;144.13;60.75;;;;;;;;;;5039751;28;20301;-71
2023/04/23 04:05:03;;;;;;;152.75;63.60;;;;;;;;;;5046387;28;20197;-70
2023/04/23 04:07:29;;;;;;;145.60;60.08;;;;;;;;;;5034105;28;21283;-70
2023/04/23 04:09:54;;;;;;;135.85;58.25;;;;;;;;;;5037082;28;20259;-71
2023/04/23 04:12:20;;;;;;;135.10;58.92;;;;;;;;;;5037440;28;20185;-71
2023/04/23 04:14:45;;;;;;;136.15;58.42;;;;;;;;;;5039306;28;20891;-70
2023/04/23 04:17:11;;;;;;;150.00;61.28;;;;;;;;;;5038296;28;20194;-71
2023/04/23 04:19:37;;;;;;;147.00;61.00;;;;;;;;;;5037806;28;20197;-71
2023/04/23 04:22:02;;;;;;;149.85;60.88;;;;;;;;;;5039864;28;20284;-70
2023/04/23 04:24:31;;;;;;;142.75;58.15;;;;;;;;;;5046057;28;20212;-70
2023/04/23 04:26:57;;;;;;;141.73;59.00;;;;;;;;;;5040153;28;20567;-70
2023/04/23 04:29:22;;;;;;;127.88;55.42;;;;;;;;;;5047318;28;20205;-71
2023/04/23 04:31:48;;;;;;;137.00;58.25;;;;;;;;;;5040120;28;20210;-70
2023/04/23 04:34:13;;;;;;;135.27;57.38;;;;;;;;;;5044837;28;20223;-71
2023/04/23 04:36:40;;;;;;;140.07;59.65;;;;;;;;;;5048387;28;20902;-71
2023/04/23 04:39:06;;;;;;;140.57;58.67;;;;;;;;;;5047954;28;20226;-70
2023/04/23 04:41:32;;;;;;;132.80;57.10;;;;;;;;;;5041196;28;20185;-70
2023/04/23 04:43:57;;;;;;;129.50;55.10;;;;;;;;;;5052015;28;20209;-70
2023/04/23 04:46:24;;;;;;;127.13;54.75;;;;;;;;;;5038994;28;20530;-71
2023/04/23 04:48:50;;;;;;;126.05;53.35;;;;;;;;;;5037659;28;20218;-71
2023/04/23 04:51:15;;;;;;;118.88;54.30;;;;;;;;;;5030514;28;20574;-71
2023/04/23 04:53:41;;;;;;;116.60;52.90;;;;;;;;;;5042743;28;20260;-71
2023/04/23 04:56:07;;;;;;;118.43;54.55;;;;;;;;;;5041099;28;20598;-71
2023/04/23 04:58:32;;;;;;;125.88;54.28;;;;;;;;;;5042729;28;20197;-71
2023/04/23 05:00:58;;;;;;;120.28;52.25;;;;;;;;;;5038743;28;20206;-71
2023/04/23 05:03:24;;;;;;;112.03;52.42;;;;;;;;;;5037793;28;20521;-70
2023/04/23 05:05:50;;;;;;;122.63;53.05;;;;;;;;;;5042954;28;20354;-71
2023/04/23 05:08:16;;;;;;;115.10;51.42;;;;;;;;;;5034061;28;20185;-70
2023/04/23 05:10:42;;;;;;;118.72;53.60;;;;;;;;;;5041781;28;20186;-70
2023/04/23 05:13:08;;;;;;;118.60;53.90;;;;;;;;;;5044466;28;20204;-70
2023/04/23 05:15:33;;;;;;;116.55;53.08;;;;;;;;;;5041152;28;20185;-70
2023/04/23 05:17:59;;;;;;;118.80;51.80;;;;;;;;;;5041212;28;20303;-70
2023/04/23 05:20:26;;;;;;;103.25;49.50;;;;;;;;;;5038112;28;20338;-70
2023/04/23 05:22:51;;;;;;;117.35;51.88;;;;;;;;;;5043963;28;20218;-70
2023/04/23 05:25:16;;;;;;;113.28;52.30;;;;;;;;;;5034766;28;20258;-70
2023/04/23 05:27:42;;;;;;;110.35;51.33;;;;;;;;;;5039496;28;20269;-70
2023/04/23 05:30:09;;;;;;;111.63;50.55;;;;;;;;;;5035878;28;20196;-70
2023/04/23 05:32:35;;;;;;;113.90;52.28;;;;;;;;;;5046981;28;20185;-70
2023/04/23 05:35:04;;;;;;;98.60;47.38;;;;;;;;;;5032648;28;20273;-71
2023/04/23 05:37:30;;;;;;;110.03;49.30;;;;;;;;;;5033591;28;20533;-70
2023/04/23 05:39:56;;;;;;;114.55;51.42;;;;;;;;;;5042150;28;20239;-70
2023/04/23 05:42:22;;;;;;;113.35;51.00;;;;;;;;;;5034378;28;20658;-70
2023/04/23 05:44:47;;;;;;;104.10;47.17;;;;;;;;;;5033930;28;20233;-70
2023/04/23 05:47:13;;;;;;;111.72;51.25;;;;;;;;;;5032556;28;20221;-70
2023/04/23 05:49:42;;;;;;;110.32;49.60;;;;;;;;;;5040315;28;20713;-71
2023/04/23 05:52:07;;;;;;;105.35;49.97;;;;;;;;;;5037027;28;20193;-70
2023/04/23 05:54:32;;;;;;;105.10;50.17;;;;;;;;;;5042866;28;20732;-71
2023/04/23 05:56:58;;;;;;;105.97;51.38;;;;;;;;;;5039213;28;20627;-71
2023/04/23 05:59:23;;;;;;;101.28;48.53;;;;;;;;;;5033350;28;20192;-70
2023/04/23 06:01:49;;;;;;;80.28;42.08;;;;;;;;;;5036517;28;20296;-70
2023/04/23 06:04:17;;;;;;;90.63;46.72;;;;;;;;;;5042412;28;20524;-70
2023/04/23 06:06:43;;;;;;;86.57;45.35;;;;;;;;;;5033116;28;20479;-70
2023/04/23 06:09:08;;;;;;;74.82;41.97;;;;;;;;;;5033762;28;20240;-70
2023/04/23 06:11:35;;;;;;;79.78;42.58;;;;;;;;;;5040595;28;20186;-70
2023/04/23 06:14:01;;;;;;;77.57;42.13;;;;;;;;;;5035785;28;20189;-70
2023/04/23 06:16:26;;;;;;;78.60;42.15;;;;;;;;;;5044479;28;20230;-71
2023/04/23 06:18:52;;;;;;;72.57;40.15;;;;;;;;;;5033357;28;20197;-70
2023/04/23 06:21:18;;;;;;;70.72;39.40;;;;;;;;;;5030728;28;20226;-71
2023/04/23 06:23:44;;;;;;;69.65;38.55;;;;;;;;;;5038228;28;20213;-70
2023/04/23 06:26:09;;;;;;;63.13;36.13;;;;;;;;;;5040191;28;20272;-70
2023/04/23 06:28:35;;;;;;;67.80;38.13;;;;;;;;;;5028997;28;20194;-70
2023/04/23 06:31:01;;;;;;;64.65;36.50;;;;;;;;;;5035805;28;20182;-70
2023/04/23 06:33:26;;;;;;;58.25;36.15;;;;;;;;;;5043040;28;20556;-70
2023/04/23 06:35:52;;;;;;;58.13;34.47;;;;;;;;;;5041262;28;20193;-70
2023/04/23 06:38:20;;;;;;;56.22;34.25;;;;;;;;;;5042262;28;20255;-70
2023/04/23 06:40:45;;;;;;;56.25;33.67;;;;;;;;;;5041410;28;20185;-70
2023/04/23 06:43:11;;;;;;;57.67;33.33;;;;;;;;;;5038334;28;20664;-70
2023/04/23 06:45:36;;;;;;;53.20;32.35;;;;;;;;;;5044550;28;20680;-70
2023/04/23 06:48:01;;;;;;;55.17;32.75;;;;;;;;;;5034795;28;20254;-70
2023/04/23 06:50:27;;;;;;;56.13;33.28;;;;;;;;;;5041111;28;20205;-70
2023/04/23 06:52:52;;;;;;;53.45;34.03;;;;;;;;;;5040635;28;20246;-71
2023/04/23 06:55:19;;;;;;;56.95;33.83;;;;;;;;;;5045629;28;20269;-70
2023/04/23 06:57:45;;;;;;;53.50;33.03;;;;;;;;;;5038086;28;20197;-70
2023/04/23 07:00:11;;;;;;;50.03;31.95;;;;;;;;;;5042999;28;20217;-71
2023/04/23 07:02:36;;;;;;;54.17;32.97;;;;;;;;;;5033477;28;20709;-71
2023/04/23 07:05:02;;;;;;;51.72;32.50;;;;;;;;;;5038935;28;20187;-70
2023/04/23 07:07:28;;;;;;;46.65;29.67;;;;;;;;;;5044128;28;20182;-70
2023/04/23 07:09:53;;;;;;;51.03;31.30;;;;;;;;;;5047597;28;20209;-69
2023/04/23 07:12:19;;;;;;;45.15;28.85;;;;;;;;;;5045515;28;20641;-70
2023/04/23 07:14:44;;;;;;;47.35;30.88;;;;;;;;;;5044791;28;20212;-70
2023/04/23 07:17:10;;;;;;;41.40;28.05;;;;;;;;;;5032950;28;20202;-69
2023/04/23 07:19:36;;;;;;;45.53;29.75;;;;;;;;;;5045477;28;20311;-70
2023/04/23 07:22:01;;;;;;;37.60;25.95;;;;;;;;;;5043242;28;20229;-69
2023/04/23 07:24:26;;;;;;;40.20;25.40;;;;;;;;;;5049451;28;20596;-68
2023/04/23 07:26:52;;;;;;;42.17;27.35;;;;;;;;;;5041427;28;20389;-69
2023/04/23 07:29:17;;;;;;;37.22;24.42;;;;;;;;;;5040487;28;20189;-69
2023/04/23 07:31:43;;;;;;;39.47;24.30;;;;;;;;;;5043381;28;20196;-68
2023/04/23 07:34:08;;;;;;;37.10;25.30;;;;;;;;;;5044771;28;20186;-68
2023/04/23 07:36:34;;;;;;;35.25;23.95;;;;;;;;;;5042384;28;20251;-68
2023/04/23 07:39:00;;;;;;;36.72;24.83;;;;;;;;;;5038668;28;20225;-68
2023/04/23 07:41:25;;;;;;;42.55;25.90;;;;;;;;;;5041011;28;20225;-69
2023/04/23 07:43:51;;;;;;;32.00;22.40;;;;;;;;;;5043275;28;20508;-69
2023/04/23 07:46:16;;;;;;;34.58;23.17;;;;;;;;;;5036054;28;20198;-68
2023/04/23 07:48:41;;;;;;;35.90;23.95;;;;;;;;;;5043729;28;20192;-68
2023/04/23 07:51:07;;;;;;;36.08;23.38;;;;;;;;;;5033815;28;20229;-69
2023/04/23 07:53:34;;;;;;;34.58;23.30;;;;;;;;;;5039458;28;20190;-68
2023/04/23 07:55:59;;;;;;;31.85;21.35;;;;;;;;;;5038211;28;20196;-69
2023/04/23 07:58:25;;;;;;;33.75;22.60;;;;;;;;;;5028740;28;20186;-68
2023/04/23 08:00:51;;;;;;;30.38;20.75;;;;;;;;;;5031679;28;20641;-68
2023/04/23 08:03:16;;;;;;;27.83;19.90;;;;;;;;;;5040856;28;20229;-69
2023/04/23 08:05:41;;;;;;;28.35;20.98;;;;;;;;;;5028729;28;20684;-68
2023/04/23 08:08:07;;;;;;;31.17;19.70;;;;;;;;;;5040104;28;20194;-69
2023/04/23 08:10:34;;;;;;;27.40;19.77;;;;;;;;;;5040327;28;20254;-69
2023/04/23 08:13:00;;;;;;;27.05;19.42;;;;;;;;;;5041421;28;20616;-68
2023/04/23 08:15:25;;;;;;;25.10;18.85;;;;;;;;;;5038849;28;20317;-68
2023/04/23 08:17:51;;;;;;;26.63;18.08;;;;;;;;;;5034413;28;20277;-69
2023/04/23 08:20:16;;;;;;;21.42;15.48;;;;;;;;;;5043083;28;20205;-68
2023/04/23 08:22:42;;;;;;;22.52;15.65;;;;;;;;;;5047356;28;20211;-68
2023/04/23 08:25:08;;;;;;;22.50;16.42;;;;;;;;;;5032974;28;20554;-68
2023/04/23 08:27:33;;;;;;;23.60;16.77;;;;;;;;;;5038972;28;20186;-70
2023/04/23 08:29:59;;;;;;;22.42;16.73;;;;;;;;;;5037105;28;20221;-70
2023/04/23 08:32:24;;;;;;;21.20;15.05;;;;;;;;;;5036501;28;20674;-69
2023/04/23 08:34:50;;;;;;;21.33;14.60;;;;;;;;;;5040646;28;20200;-70
2023/04/23 08:37:15;;;;;;;22.88;15.35;;;;;;;;;;5048205;28;20270;-69
2023/04/23 08:39:40;;;;;;;18.33;13.30;;;;;;;;;;5036823;28;20284;-69
2023/04/23 08:42:32;;;;;;;15.35;12.43;;;;;;;;;;5029113;28;20190;-69
2023/04/23 08:44:58;;;;;;;20.23;14.23;;;;;;;;;;5032026;28;20279;-68
2023/04/23 08:47:24;;;;;;;17.48;13.27;;;;;;;;;;5041866;28;20244;-69
2023/04/23 08:49:57;;;;;;;15.15;11.82;;;;;;;;;;5034659;28;20196;-69
2023/04/23 08:52:24;;;;;;;17.48;13.82;;;;;;;;;;5031321;28;20194;-69
2023/04/23 08:54:52;;;;;;;15.30;12.35;;;;;;;;;;5041006;28;20185;-69
2023/04/23 08:57:18;;;;;;;15.27;11.10;;;;;;;;;;5028653;28;20186;-69
2023/04/23 08:59:45;;;;;;;12.75;9.80;;;;;;;;;;5032660;28;20703;-69
2023/04/23 09:02:10;;;;;;;13.07;9.90;;;;;;;;;;5029332;28;20189;-69
2023/04/23 09:04:37;;;;;;;12.27;9.98;;;;;;;;;;5043622;28;20188;-69
2023/04/23 09:07:03;;;;;;;11.55;8.43;;;;;;;;;;5038028;28;20209;-68
2023/04/23 09:09:29;;;;;;;12.70;9.65;;;;;;;;;;5030153;28;20189;-70
2023/04/23 09:11:56;;;;;;;11.70;8.23;;;;;;;;;;5033964;28;20632;-69
2023/04/23 09:14:24;;;;;;;10.57;6.88;;;;;;;;;;5030414;28;20190;-68
2023/04/23 09:16:50;;;;;;;9.07;6.53;;;;;;;;;;5026852;28;20200;-69
2023/04/23 09:19:17;;;;;;;9.57;7.22;;;;;;;;;;5034330;28;20554;-68
2023/04/23 09:21:43;;;;;;;8.88;6.00;;;;;;;;;;5031152;28;20276;-68
2023/04/23 09:24:12;;;;;;;8.20;5.78;;;;;;;;;;5037035;28;20244;-68
2023/04/23 09:26:49;;;;;;;10.15;6.10;;;;;;;;;;5029796;28;20264;-68
2023/04/23 09:29:17;;;;;;;10.18;6.22;;;;;;;;;;5028166;28;20281;-68
2023/04/23 09:31:48;;;;;;;8.75;5.95;;;;;;;;;;5035774;28;20268;-68
2023/04/23 09:34:17;;;;;;;8.73;5.07;;;;;;;;;;5038952;28;20186;-68
2023/04/23 09:36:43;;;;;;;8.63;4.15;;;;;;;;;;5040457;28;20198;-68
2023/04/23 09:39:13;;;;;;;9.02;4.82;;;;;;;;;;5041844;28;20185;-68
2023/04/23 09:41:38;;;;;;;6.40;5.13;;;;;;;;;;5035942;28;20247;-68
2023/04/23 09:44:04;;;;;;;7.18;5.03;;;;;;;;;;5034233;28;20213;-67
2023/04/23 09:46:36;;;;;;;5.22;4.10;;;;;;;;;;5033987;28;20276;-68
2023/04/23 09:49:06;;;;;;;6.93;5.45;;;;;;;;;;5036641;28;20201;-68
2023/04/23 09:51:34;;;;;;;5.70;4.30;;;;;;;;;;5034191;28;20193;-68
2023/04/23 09:54:02;;;;;;;7.07;4.18;;;;;;;;;;5041379;28;20645;-68
2023/04/23 09:56:29;;;;;;;6.07;4.32;;;;;;;;;;5038258;28;20217;-67
2023/04/23 09:58:55;;;;;;;8.90;4.95;;;;;;;;;;5031110;28;20232;-68
2023/04/23 10:01:27;;;;;;;8.13;3.80;;;;;;;;;;5034563;28;20213;-68
2023/04/23 10:03:53;;;;;;;7.95;4.07;;;;;;;;;;5028678;28;20214;-68
2023/04/23 10:06:18;;;;;;;8.13;3.63;;;;;;;;;;5035703;28;20237;-68
2023/04/23 10:08:45;;;;;;;9.25;4.43;;;;;;;;;;5039927;28;20276;-67
2023/04/23 10:11:11;;;;;;;6.72;3.58;;;;;;;;;;5032556;28;20190;-68
2023/04/23 10:13:36;;;;;;;6.95;3.28;;;;;;;;;;5029985;28;20193;-67
2023/04/23 10:16:03;;;;;;;6.40;3.20;;;;;;;;;;5043567;28;20185;-67
2023/04/23 10:18:31;;;;;;;7.57;2.80;;;;;;;;;;5035233;28;20294;-67
2023/04/23 10:20:57;;;;;;;9.27;3.70;;;;;;;;;;5041740;28;20498;-67
2023/04/23 10:23:23;;;;;;;6.20;3.60;;;;;;;;;;5041349;28;20513;-67
2023/04/23 10:25:53;;;;;;;7.43;3.20;;;;;;;;;;5039871;28;20599;-68
2023/04/23 10:28:27;;;;;;;7.22;3.55;;;;;;;;;;5046944;28;20617;-68
2023/04/23 10:30:53;;;;;;;7.75;3.60;;;;;;;;;;5048064;28;20189;-68
2023/04/23 10:33:19;;;;;;;7.63;3.45;;;;;;;;;;5030973;28;20198;-68
2023/04/23 10:35:47;;;;;;;5.65;3.28;;;;;;;;;;5040480;28;20570;-68
2023/04/23 10:38:14;;;;;;;7.32;3.70;;;;;;;;;;5046638;28;20229;-68
2023/04/23 10:40:44;;;;;;;6.68;3.13;;;;;;;;;;5049127;28;20197;-68
2023/04/23 10:43:10;;;;;;;7.47;2.83;;;;;;;;;;5043441;28;20263;-67
2023/04/23 10:45:35;;;;;;;6.45;2.78;;;;;;;;;;5043404;28;20316;-68
2023/04/23 10:48:00;;;;;;;8.15;3.70;;;;;;;;;;5037638;28;20197;-68
2023/04/23 10:50:28;;;;;;;8.18;3.28;;;;;;;;;;5048061;28;20527;-67
2023/04/23 10:52:55;;;;;;;8.00;3.53;;;;;;;;;;5034086;28;20182;-67
2023/04/23 10:55:26;;;;;;;8.25;4.10;;;;;;;;;;5041117;28;20189;-68
2023/04/23 10:57:56;;;;;;;5.50;2.97;;;;;;;;;;5044295;28;20668;-67
2023/04/23 11:00:22;;;;;;;6.78;2.88;;;;;;;;;;5048328;28;20282;-67
2023/04/23 11:02:49;;;;;;;5.22;2.25;;;;;;;;;;5036078;28;20293;-67
2023/04/23 11:05:16;;;;;;;6.72;2.65;;;;;;;;;;5042770;28;20206;-70
2023/04/23 11:07:41;;;;;;;6.63;2.35;;;;;;;;;;5044789;28;20720;-68
2023/04/23 11:10:13;;;;;;;4.82;2.08;;;;;;;;;;5042879;28;20182;-68
2023/04/23 11:12:39;;;;;;;6.80;2.17;;;;;;;;;;5030922;28;20573;-67
2023/04/23 11:15:13;;;;;;;7.38;1.60;;;;;;;;;;5044822;28;20253;-67
2023/04/23 11:17:38;;;;;;;4.40;1.85;;;;;;;;;;5051111;28;20193;-68
2023/04/23 11:20:17;;;;;;;6.03;2.10;;;;;;;;;;5045892;28;20239;-67
2023/04/23 11:22:50;;;;;;;8.27;1.77;;;;;;;;;;5042245;28;20289;-68
2023/04/23 11:25:19;;;;;;;8.05;2.30;;;;;;;;;;5038158;28;20191;-68
2023/04/23 11:27:45;;;;;;;7.53;1.80;;;;;;;;;;5041490;28;20190;-68
2023/04/23 11:30:13;;;;;;;6.65;2.10;;;;;;;;;;5037452;28;20197;-68
2023/04/23 11:32:40;;;;;;;6.80;2.10;;;;;;;;;;5039230;28;20205;-68
2023/04/23 11:35:08;;;;;;;10.02;2.22;;;;;;;;;;5033635;28;20186;-68
2023/04/23 11:37:37;;;;;;;5.55;1.90;;;;;;;;;;5035588;28;20208;-68
2023/04/23 11:40:09;;;;;;;6.88;1.63;;;;;;;;;;5035677;28;20200;-68
2023/04/23 11:42:45;;;;;;;5.60;2.00;;;;;;;;;;5031989;28;20645;-68
2023/04/23 11:45:21;;;;;;;7.53;2.03;;;;;;;;;;5037694;28;20253;-67
2023/04/23 11:47:49;;;;;;;6.57;1.73;;;;;;;;;;5048873;28;20193;-68
2023/04/23 11:50:19;;;;;;;7.10;1.73;;;;;;;;;;5046975;28;20182;-68
2023/04/23 11:52:45;;;;;;;4.28;1.55;;;;;;;;;;5029406;28;20183;-69
2023/04/23 11:55:11;;;;;;;4.72;1.50;;;;;;;;;;5032088;28;20201;-68
2023/04/23 11:57:44;;;;;;;6.07;1.55;;;;;;;;;;5040553;28;20192;-68
2023/04/23 12:00:21;;;;;;;6.82;1.52;;;;;;;;;;5038084;28;20217;-68
2023/04/23 12:03:00;;;;;;;6.95;1.85;;;;;;;;;;5046538;28;20220;-69
2023/04/23 12:05:35;;;;;;;5.13;1.50;;;;;;;;;;5039601;28;20629;-70
2023/04/23 12:08:15;;;;;;;7.15;1.27;;;;;;;;;;5029483;28;20296;-69
2023/04/23 12:10:50;;;;;;;5.07;1.60;;;;;;;;;;5030832;28;20485;-70
2023/04/23 12:13:21;;;;;;;7.03;1.50;;;;;;;;;;5042962;28;20189;-68
2023/04/23 12:15:58;;;;;;;8.90;1.73;;;;;;;;;;5033074;28;20310;-68
2023/04/23 12:18:38;;;;;;;7.28;1.60;;;;;;;;;;5041395;28;20251;-68
2023/04/23 12:21:08;;;;;;;7.15;1.65;;;;;;;;;;5037165;28;20683;-68
2023/04/23 12:23:36;;;;;;;6.30;1.70;;;;;;;;;;5032796;28;20288;-68
2023/04/23 12:26:02;;;;;;;7.05;1.50;;;;;;;;;;5030676;28;20689;-68
2023/04/23 12:28:28;;;;;;;7.78;1.70;;;;;;;;;;5039113;28;20192;-68
2023/04/23 12:30:59;;;;;;;6.70;1.70;;;;;;;;;;5038967;28;20197;-67
2023/04/23 12:33:28;;;;;;;7.50;1.60;;;;;;;;;;5040220;28;20655;-68
2023/04/23 12:35:53;;;;;;;6.60;1.45;;;;;;;;;;5041399;28;20691;-67
2023/04/23 12:38:25;;;;;;;6.15;1.38;;;;;;;;;;5034236;28;20275;-67
2023/04/23 12:40:55;;;;;;;7.95;1.88;;;;;;;;;;5030452;28;20185;-67
2023/04/23 12:43:21;;;;;;;4.85;1.63;;;;;;;;;;5037219;28;20214;-69
2023/04/23 12:45:46;;;;;;;5.82;1.50;;;;;;;;;;5039927;28;20277;-70
2023/04/23 12:48:12;;;;;;;7.85;1.50;;;;;;;;;;5043055;28;20190;-67
2023/04/23 12:50:38;;;;;;;6.68;1.77;;;;;;;;;;5037372;28;20182;-67
2023/04/23 12:53:04;;;;;;;5.03;1.50;;;;;;;;;;5031153;28;20340;-69
2023/04/23 12:55:29;;;;;;;6.72;1.90;;;;;;;;;;5036639;28;20185;-67
2023/04/23 12:57:55;;;;;;;4.32;1.38;;;;;;;;;;5035616;28;20523;-67
2023/04/23 13:00:21;;;;;;;4.45;1.40;;;;;;;;;;5037487;28;20212;-67
2023/04/23 13:02:47;;;;;;;5.85;1.63;;;;;;;;;;5040819;28;20202;-67
2023/04/23 13:05:12;;;;;;;5.03;1.65;;;;;;;;;;5036897;28;20201;-67
2023/04/23 13:07:37;;;;;;;8.05;1.83;;;;;;;;;;5034160;28;20316;-68
2023/04/23 13:10:04;;;;;;;6.72;1.88;;;;;;;;;;5046026;28;20707;-68
2023/04/23 13:12:30;;;;;;;6.95;1.95;;;;;;;;;;5042513;28;20178;-67
2023/04/23 13:14:55;;;;;;;4.88;1.40;;;;;;;;;;5035458;28;20746;-67
2023/04/23 13:17:22;;;;;;;8.77;1.60;;;;;;;;;;5046479;28;20225;-68
2023/04/23 13:19:47;;;;;;;5.18;1.48;;;;;;;;;;5035855;28;20491;-68
2023/04/23 13:22:12;;;;;;;5.10;1.75;;;;;;;;;;5042466;28;20311;-68
2023/04/23 13:24:38;;;;;;;4.55;1.33;;;;;;;;;;5041367;28;20505;-70
2023/04/23 13:27:03;;;;;;;7.35;1.77;;;;;;;;;;5041321;28;20197;-68
2023/04/23 13:29:28;;;;;;;6.03;1.42;;;;;;;;;;5033353;28;20689;-69
2023/04/23 13:31:55;;;;;;;5.75;1.27;;;;;;;;;;5038377;28;20205;-68
2023/04/23 13:34:20;;;;;;;3.53;1.30;;;;;;;;;;5033590;28;20181;-69
2023/04/23 13:36:46;;;;;;;5.50;1.38;;;;;;;;;;5037131;28;20560;-69
2023/04/23 13:39:12;;;;;;;4.78;1.42;;;;;;;;;;5038042;28;20196;-68
2023/04/23 13:41:38;;;;;;;3.58;1.33;;;;;;;;;;5036009;28;20240;-68
2023/04/23 13:44:04;;;;;;;4.43;1.48;;;;;;;;;;5027428;28;20209;-68
2023/04/23 13:46:29;;;;;;;4.95;1.85;;;;;;;;;;5038207;28;20185;-69
2023/04/23 13:49:09;;;;;;;5.00;1.48;;;;;;;;;;4849709;28;10000614;-69
2023/04/23 13:51:34;;;;;;;6.20;1.30;;;;;;;;;;5029119;28;20398;-69
2023/04/23 13:54:00;;;;;;;6.05;1.55;;;;;;;;;;5042233;28;20276;-69
2023/04/23 13:56:25;;;;;;;5.15;1.50;;;;;;;;;;5039765;28;20569;-69
2023/04/23 13:58:51;;;;;;;5.38;1.27;;;;;;;;;;5027861;28;20189;-70
2023/04/23 14:01:17;;;;;;;5.43;1.40;;;;;;;;;;5041930;28;20786;-69
2023/04/23 14:03:43;;;;;;;5.85;1.33;;;;;;;;;;5044011;28;20216;-68
2023/04/23 14:06:08;;;;;;;4.90;1.42;;;;;;;;;;5036511;28;20224;-68
2023/04/23 14:08:35;;;;;;;5.18;1.35;;;;;;;;;;5038530;28;20189;-68
2023/04/23 14:11:01;;;;;;;5.55;1.63;;;;;;;;;;5031782;28;20194;-67
2023/04/23 14:13:26;;;;;;;6.10;1.48;;;;;;;;;;5039750;28;20193;-69
2023/04/23 14:15:52;;;;;;;6.18;1.70;;;;;;;;;;5034628;28;20733;-68
2023/04/23 14:18:17;;;;;;;6.45;1.60;;;;;;;;;;5024253;28;20193;-68